Архив погоды в Богучаре

Метеограмма Богучар
Среда, 24 Мая
Время местн. Темп Ветер Видим Явления Облачность нижн/средн/верх Атм. давл. Влжн Точка росы ВНГО R Сост. почвы Tg s
Напр Скр Прв ур.ст ур.м изм
09:00 +13.7° Ю-З 1 - 20 км - облачно с прояснениями 757 765 +0.2 70% +8.3° 1.5 км - - - -
06:00 +9.1° Ю-З 1 - 20 км - преимущественно облачно 757 764 +0.2 84% +6.5° 1.5 км - - - -
03:00 +9.7° Ю-З 1 - 20 км - ясно 757 764 +0.5 79% +6.3° более 2.5 км - - - -
00:00 +10.3° Ю-З 1 - 20 км - переменная облачность 756 764 +0.5 77% +6.5° более 2.5 км - - - -
Вторник, 23 Мая
Время местн. Темп Ветер Видим Явления Облачность нижн/средн/верх Атм. давл. Влжн Точка росы ВНГО R Сост. почвы Tg s
Напр Скр Прв ур.ст ур.м изм
21:00 +13.8° З 1 - 20 км - переменная облачность 756 763 +0.6 66% +7.5° более 2.5 км - - - -
18:00 +19.9° С-З 1 - 20 км - переменная облачность 755 762 -0.5 33% +3.2° 1.5 км 0 - - -
15:00 +18.7° С 2 - 20 км - облачно с прояснениями 755 763 -0.5 34% +2.7° 1.5 км - - - -
12:00 +16.2° З,С-З 2 - 20 км - облачно с прояснениями 756 763 +0.5 39% +2.2° 1.5 км - - - -
09:00 +14.4° С-З 1 - 20 км - ясно 755 763 +1.5 45% +2.5° более 2.5 км - - - -
06:00 +5.1° Ю,Ю-З 1 - 20 км - переменная облачность 754 762 +0.9 87% +3.2° более 2.5 км - Влажная (без луж) - -
03:00 +4.1° Ю-З 1 - 20 км - ясно 753 761 +0.7 90% +2.6° более 2.5 км - - - -
00:00 +9.8° С-З 2 - 20 км - ясно 752 760 +0.5 69% +4.4° более 2.5 км - - - -
Понедельник, 22 Мая
Время местн. Темп Ветер Видим Явления Облачность нижн/средн/верх Атм. давл. Влжн Точка росы ВНГО R Сост. почвы Tg s
Напр Скр Прв ур.ст ур.м изм
21:00 +9.6° З,С-З 1 - 20 км - переменная облачность 752 759 +1 79% +6.1° более 2.5 км - - - -
18:00 +14.1° С 3 - 20 км - облачно с прояснениями 751 758 +1 53% +4.6° 1 км - - - -
15:00 +14.4° С,С-В 2 - 20 км небо без изменений {ливневые осадки} преимущественно облачно 750 757 +0.8 56% +5.8° 1 км - - - -
12:00 +11.6° С 3 - 20 км небо без изменений {ливневые осадки} облачно 749 757 +1.7 92% +10.4° 600 м - - - -
09:00 +11° С,С-В 3 - 10 км слабый ливневый дождь облачно 747 755 -1.1 97% +10.6° 600 м - - - -
06:00 +13.1° З 1 - 5 км слабый ливневый дождь облачно 746 754 0 96% +12.5° 600 м - - - -
03:00 +13° Ю-З 1 - 4 км слабый непрерывный дождь облачно 746 754 -0.6 96% +12.3° 600 м - - - -
00:00 +14° З 2 - 4 км слабый непрерывный дождь {ливневые осадки} облачно 747 754 -0.1 92% +12.7° 600 м - - - -
Воскресенье, 21 Мая
Время местн. Темп Ветер Видим Явления Облачность нижн/средн/верх Атм. давл. Влжн Точка росы ВНГО R Сост. почвы Tg s
Напр Скр Прв ур.ст ур.м изм
21:00 +14.1° Ю-З 2 - 10 км слабый ливневый дождь облачно 747 754 +1.1 91% +12.7° 600 м - - - -
18:00 +18.4° З 3 - 20 км - облачно 746 753 -0.7 69% +12.7° 1 км - - - -
15:00 +17.6° З 3 - 20 км небо без изменений {дождь} облачно 747 754 +0.3 76% +13.4° 600 м - - - -
12:00 +15.6° З,С-З 3 - 20 км небо без изменений {дождь} облачно 747 754 +0.2 87% +13.5° 600 м - - - -
09:00 +14.7° З,С-З 3 - 6 км слабый непрерывный дождь облачно 746 754 -0.2 89% +12.9° 600 м - - - -
06:00 +12.9° З,С-З 3 - 6 км слабый непрерывный дождь облачно 747 754 -1 89% +11.2° 600 м 10 - - -